sensor_id;sensor_type;location;lat;lon;timestamp;pressure;altitude;pressure_sealevel;temperature;humidity
73518;BME280;61766;60.318;25.044;2023-04-15T00:00:13;102484.01;;;4.23;24.43
73518;BME280;61766;60.318;25.044;2023-04-15T00:02:37;102485.66;;;4.27;24.55
73518;BME280;61766;60.318;25.044;2023-04-15T00:05:03;102490.54;;;4.51;24.43
73518;BME280;61766;60.318;25.044;2023-04-15T00:07:28;102489.71;;;4.45;24.70
73518;BME280;61766;60.318;25.044;2023-04-15T00:09:53;102491.94;;;4.93;24.34
73518;BME280;61766;60.318;25.044;2023-04-15T00:12:18;102491.35;;;4.71;24.24
73518;BME280;61766;60.318;25.044;2023-04-15T00:14:43;102493.58;;;4.62;24.80
73518;BME280;61766;60.318;25.044;2023-04-15T00:17:09;102494.03;;;4.43;24.98
73518;BME280;61766;60.318;25.044;2023-04-15T00:19:34;102495.36;;;4.79;24.52
73518;BME280;61766;60.318;25.044;2023-04-15T00:21:59;102494.64;;;4.14;25.00
73518;BME280;61766;60.318;25.044;2023-04-15T00:24:24;102493.75;;;3.86;25.44
73518;BME280;61766;60.318;25.044;2023-04-15T00:26:50;102493.06;;;4.57;25.02
73518;BME280;61766;60.318;25.044;2023-04-15T00:29:15;102492.32;;;4.53;24.80
73518;BME280;61766;60.318;25.044;2023-04-15T00:31:40;102494.70;;;4.58;24.89
73518;BME280;61766;60.318;25.044;2023-04-15T00:34:06;102497.75;;;4.56;24.94
73518;BME280;61766;60.318;25.044;2023-04-15T00:36:31;102497.82;;;4.67;24.99
73518;BME280;61766;60.318;25.044;2023-04-15T00:38:56;102493.08;;;4.30;25.26
73518;BME280;61766;60.318;25.044;2023-04-15T00:41:21;102496.81;;;4.35;25.28
73518;BME280;61766;60.318;25.044;2023-04-15T00:43:47;102497.23;;;4.53;25.00
73518;BME280;61766;60.318;25.044;2023-04-15T00:46:13;102497.18;;;4.60;25.02
73518;BME280;61766;60.318;25.044;2023-04-15T00:48:38;102499.74;;;4.42;25.27
73518;BME280;61766;60.318;25.044;2023-04-15T00:51:03;102497.81;;;4.42;25.47
73518;BME280;61766;60.318;25.044;2023-04-15T00:53:28;102500.21;;;4.57;25.15
73518;BME280;61766;60.318;25.044;2023-04-15T00:55:54;102500.91;;;4.91;25.33
73518;BME280;61766;60.318;25.044;2023-04-15T00:58:19;102505.20;;;3.98;25.69
73518;BME280;61766;60.318;25.044;2023-04-15T01:00:44;102502.76;;;4.87;25.47
73518;BME280;61766;60.318;25.044;2023-04-15T01:03:09;102501.69;;;4.13;25.67
73518;BME280;61766;60.318;25.044;2023-04-15T01:05:35;102502.40;;;3.93;25.86
73518;BME280;61766;60.318;25.044;2023-04-15T01:08:00;102503.72;;;4.45;25.90
73518;BME280;61766;60.318;25.044;2023-04-15T01:10:26;102501.98;;;4.02;26.15
73518;BME280;61766;60.318;25.044;2023-04-15T01:12:51;102503.65;;;4.10;25.91
73518;BME280;61766;60.318;25.044;2023-04-15T01:15:16;102502.48;;;4.22;25.81
73518;BME280;61766;60.318;25.044;2023-04-15T01:17:42;102504.25;;;4.62;25.67
73518;BME280;61766;60.318;25.044;2023-04-15T01:20:08;102509.23;;;4.39;25.65
73518;BME280;61766;60.318;25.044;2023-04-15T01:22:33;102509.59;;;4.42;25.99
73518;BME280;61766;60.318;25.044;2023-04-15T01:25:03;102508.55;;;3.91;25.91
73518;BME280;61766;60.318;25.044;2023-04-15T01:27:23;102509.11;;;4.33;26.03
73518;BME280;61766;60.318;25.044;2023-04-15T01:29:49;102504.27;;;4.32;26.22
73518;BME280;61766;60.318;25.044;2023-04-15T01:32:15;102504.12;;;3.89;26.28
73518;BME280;61766;60.318;25.044;2023-04-15T01:34:40;102504.77;;;4.00;25.95
73518;BME280;61766;60.318;25.044;2023-04-15T01:37:06;102508.11;;;3.71;26.24
73518;BME280;61766;60.318;25.044;2023-04-15T01:39:31;102512.00;;;4.06;25.81
73518;BME280;61766;60.318;25.044;2023-04-15T01:41:56;102513.68;;;4.10;26.20
73518;BME280;61766;60.318;25.044;2023-04-15T01:44:21;102512.54;;;4.23;26.08
73518;BME280;61766;60.318;25.044;2023-04-15T01:46:47;102512.36;;;4.28;26.32
73518;BME280;61766;60.318;25.044;2023-04-15T01:49:12;102511.18;;;3.60;27.26
73518;BME280;61766;60.318;25.044;2023-04-15T01:51:37;102509.72;;;3.52;26.70
73518;BME280;61766;60.318;25.044;2023-04-15T01:54:03;102512.52;;;4.17;26.62
73518;BME280;61766;60.318;25.044;2023-04-15T01:56:28;102511.12;;;4.26;26.75
73518;BME280;61766;60.318;25.044;2023-04-15T01:58:53;102513.69;;;4.38;26.43
73518;BME280;61766;60.318;25.044;2023-04-15T02:01:18;102514.82;;;4.07;26.74
73518;BME280;61766;60.318;25.044;2023-04-15T02:03:44;102515.60;;;4.00;27.00
73518;BME280;61766;60.318;25.044;2023-04-15T02:06:09;102513.96;;;3.97;27.05
73518;BME280;61766;60.318;25.044;2023-04-15T02:08:34;102514.19;;;4.00;27.10
73518;BME280;61766;60.318;25.044;2023-04-15T02:10:59;102514.32;;;4.19;26.72
73518;BME280;61766;60.318;25.044;2023-04-15T02:13:25;102511.16;;;3.98;26.79
73518;BME280;61766;60.318;25.044;2023-04-15T02:15:50;102509.52;;;4.05;26.92
73518;BME280;61766;60.318;25.044;2023-04-15T02:18:16;102513.52;;;4.18;26.60
73518;BME280;61766;60.318;25.044;2023-04-15T02:20:41;102516.73;;;4.27;26.64
73518;BME280;61766;60.318;25.044;2023-04-15T02:23:06;102514.51;;;3.96;26.65
73518;BME280;61766;60.318;25.044;2023-04-15T02:25:31;102520.18;;;4.30;26.44
73518;BME280;61766;60.318;25.044;2023-04-15T02:27:57;102520.36;;;4.16;26.37
73518;BME280;61766;60.318;25.044;2023-04-15T02:30:22;102524.79;;;3.98;26.72
73518;BME280;61766;60.318;25.044;2023-04-15T02:32:47;102524.14;;;3.99;27.16
73518;BME280;61766;60.318;25.044;2023-04-15T02:35:12;102525.30;;;4.59;26.56
73518;BME280;61766;60.318;25.044;2023-04-15T02:37:38;102526.16;;;4.15;26.84
73518;BME280;61766;60.318;25.044;2023-04-15T02:40:04;102525.48;;;4.20;27.20
73518;BME280;61766;60.318;25.044;2023-04-15T02:42:28;102524.59;;;4.00;27.24
73518;BME280;61766;60.318;25.044;2023-04-15T02:44:54;102525.66;;;3.68;27.51
73518;BME280;61766;60.318;25.044;2023-04-15T02:47:19;102525.78;;;4.01;27.43
73518;BME280;61766;60.318;25.044;2023-04-15T02:49:44;102526.66;;;3.73;27.81
73518;BME280;61766;60.318;25.044;2023-04-15T02:52:09;102528.95;;;3.94;27.47
73518;BME280;61766;60.318;25.044;2023-04-15T02:54:35;102532.04;;;3.71;27.83
73518;BME280;61766;60.318;25.044;2023-04-15T02:57:00;102532.01;;;4.09;27.37
73518;BME280;61766;60.318;25.044;2023-04-15T02:59:25;102532.46;;;4.01;27.39
73518;BME280;61766;60.318;25.044;2023-04-15T03:01:51;102532.83;;;4.17;27.53
73518;BME280;61766;60.318;25.044;2023-04-15T03:04:16;102530.08;;;3.99;27.44
73518;BME280;61766;60.318;25.044;2023-04-15T03:06:41;102530.19;;;3.44;27.73
73518;BME280;61766;60.318;25.044;2023-04-15T03:09:06;102528.12;;;3.95;27.67
73518;BME280;61766;60.318;25.044;2023-04-15T03:11:32;102528.49;;;4.14;27.74
73518;BME280;61766;60.318;25.044;2023-04-15T03:13:57;102531.50;;;3.42;27.92
73518;BME280;61766;60.318;25.044;2023-04-15T03:16:22;102531.45;;;4.01;27.74
73518;BME280;61766;60.318;25.044;2023-04-15T03:18:48;102535.69;;;3.71;28.28
73518;BME280;61766;60.318;25.044;2023-04-15T03:21:13;102536.07;;;3.78;28.22
73518;BME280;61766;60.318;25.044;2023-04-15T03:23:38;102540.65;;;3.79;27.92
73518;BME280;61766;60.318;25.044;2023-04-15T03:26:04;102542.84;;;3.89;27.96
73518;BME280;61766;60.318;25.044;2023-04-15T03:28:29;102548.74;;;3.28;28.77
73518;BME280;61766;60.318;25.044;2023-04-15T03:30:54;102549.54;;;3.68;28.41
73518;BME280;61766;60.318;25.044;2023-04-15T03:33:19;102551.89;;;3.60;28.54
73518;BME280;61766;60.318;25.044;2023-04-15T03:35:45;102550.70;;;3.85;28.15
73518;BME280;61766;60.318;25.044;2023-04-15T03:38:10;102548.35;;;3.77;28.39
73518;BME280;61766;60.318;25.044;2023-04-15T03:40:35;102554.11;;;3.76;28.49
73518;BME280;61766;60.318;25.044;2023-04-15T03:43:01;102555.86;;;3.98;28.00
73518;BME280;61766;60.318;25.044;2023-04-15T03:45:26;102557.92;;;3.80;28.26
73518;BME280;61766;60.318;25.044;2023-04-15T03:47:52;102559.63;;;3.74;28.45
73518;BME280;61766;60.318;25.044;2023-04-15T03:50:17;102561.68;;;3.38;28.72
73518;BME280;61766;60.318;25.044;2023-04-15T03:52:43;102560.44;;;3.21;29.04
73518;BME280;61766;60.318;25.044;2023-04-15T03:55:08;102558.95;;;3.06;29.44
73518;BME280;61766;60.318;25.044;2023-04-15T03:57:33;102564.24;;;3.35;28.96
73518;BME280;61766;60.318;25.044;2023-04-15T03:59:58;102564.45;;;3.24;29.22
73518;BME280;61766;60.318;25.044;2023-04-15T04:02:23;102567.63;;;3.16;29.30
73518;BME280;61766;60.318;25.044;2023-04-15T04:04:49;102564.85;;;3.44;28.99
73518;BME280;61766;60.318;25.044;2023-04-15T04:07:15;102564.63;;;3.22;29.23
73518;BME280;61766;60.318;25.044;2023-04-15T04:09:39;102567.73;;;3.63;29.21
73518;BME280;61766;60.318;25.044;2023-04-15T04:12:05;102566.64;;;3.79;28.53
73518;BME280;61766;60.318;25.044;2023-04-15T04:14:30;102563.58;;;3.47;29.18
73518;BME280;61766;60.318;25.044;2023-04-15T04:16:56;102562.54;;;3.90;28.87
73518;BME280;61766;60.318;25.044;2023-04-15T04:19:21;102562.12;;;3.97;28.73
73518;BME280;61766;60.318;25.044;2023-04-15T04:21:46;102562.07;;;3.77;28.21
73518;BME280;61766;60.318;25.044;2023-04-15T04:24:11;102564.96;;;4.06;28.89
73518;BME280;61766;60.318;25.044;2023-04-15T04:26:36;102563.94;;;3.25;29.56
73518;BME280;61766;60.318;25.044;2023-04-15T04:29:02;102565.45;;;3.78;29.14
73518;BME280;61766;60.318;25.044;2023-04-15T04:31:27;102567.94;;;3.75;29.26
73518;BME280;61766;60.318;25.044;2023-04-15T04:33:52;102571.17;;;3.88;28.85
73518;BME280;61766;60.318;25.044;2023-04-15T04:36:18;102567.98;;;2.97;30.06
73518;BME280;61766;60.318;25.044;2023-04-15T04:38:43;102570.73;;;3.67;29.50
73518;BME280;61766;60.318;25.044;2023-04-15T04:41:08;102569.85;;;3.88;29.14
73518;BME280;61766;60.318;25.044;2023-04-15T04:43:33;102570.03;;;3.76;29.58
73518;BME280;61766;60.318;25.044;2023-04-15T04:45:59;102571.86;;;3.04;30.10
73518;BME280;61766;60.318;25.044;2023-04-15T04:48:24;102574.57;;;3.83;29.55
73518;BME280;61766;60.318;25.044;2023-04-15T04:50:49;102576.07;;;4.02;29.52
73518;BME280;61766;60.318;25.044;2023-04-15T04:53:15;102578.00;;;3.97;29.92
73518;BME280;61766;60.318;25.044;2023-04-15T04:55:40;102580.38;;;3.96;29.77
73518;BME280;61766;60.318;25.044;2023-04-15T04:58:05;102577.76;;;4.14;29.86
73518;BME280;61766;60.318;25.044;2023-04-15T05:00:30;102582.19;;;4.36;29.49
73518;BME280;61766;60.318;25.044;2023-04-15T05:02:56;102579.81;;;4.51;29.32
73518;BME280;61766;60.318;25.044;2023-04-15T05:05:21;102582.73;;;4.61;29.22
73518;BME280;61766;60.318;25.044;2023-04-15T05:07:46;102584.61;;;4.63;29.26
73518;BME280;61766;60.318;25.044;2023-04-15T05:10:11;102580.82;;;4.17;29.56
73518;BME280;61766;60.318;25.044;2023-04-15T05:12:37;102582.60;;;3.95;29.92
73518;BME280;61766;60.318;25.044;2023-04-15T05:15:02;102577.77;;;4.72;29.48
73518;BME280;61766;60.318;25.044;2023-04-15T05:17:27;102575.00;;;4.79;29.06
73518;BME280;61766;60.318;25.044;2023-04-15T05:19:52;102572.87;;;5.30;28.65
73518;BME280;61766;60.318;25.044;2023-04-15T05:22:18;102572.97;;;5.31;28.81
73518;BME280;61766;60.318;25.044;2023-04-15T05:24:43;102569.13;;;5.82;28.29
73518;BME280;61766;60.318;25.044;2023-04-15T05:27:08;102575.04;;;5.96;28.20
73518;BME280;61766;60.318;25.044;2023-04-15T05:29:33;102575.74;;;6.12;27.37
73518;BME280;61766;60.318;25.044;2023-04-15T05:31:59;102575.79;;;5.96;27.98
73518;BME280;61766;60.318;25.044;2023-04-15T05:34:24;102574.89;;;6.07;27.73
73518;BME280;61766;60.318;25.044;2023-04-15T05:36:49;102574.81;;;6.12;27.81
73518;BME280;61766;60.318;25.044;2023-04-15T05:39:14;102575.73;;;6.65;27.35
73518;BME280;61766;60.318;25.044;2023-04-15T05:41:39;102573.41;;;6.68;27.21
73518;BME280;61766;60.318;25.044;2023-04-15T05:44:05;102574.11;;;6.17;26.97
73518;BME280;61766;60.318;25.044;2023-04-15T05:46:30;102576.22;;;6.27;27.03
73518;BME280;61766;60.318;25.044;2023-04-15T05:48:55;102574.61;;;6.92;27.19
73518;BME280;61766;60.318;25.044;2023-04-15T05:51:20;102574.43;;;6.60;27.07
73518;BME280;61766;60.318;25.044;2023-04-15T05:53:45;102572.94;;;6.79;26.78
73518;BME280;61766;60.318;25.044;2023-04-15T05:56:10;102568.36;;;7.22;26.75
73518;BME280;61766;60.318;25.044;2023-04-15T05:58:36;102569.15;;;5.67;27.26
73518;BME280;61766;60.318;25.044;2023-04-15T06:01:01;102575.46;;;6.73;27.55
73518;BME280;61766;60.318;25.044;2023-04-15T06:03:26;102576.82;;;6.90;26.70
73518;BME280;61766;60.318;25.044;2023-04-15T06:05:51;102571.80;;;7.57;26.27
73518;BME280;61766;60.318;25.044;2023-04-15T06:08:16;102570.41;;;7.79;26.06
73518;BME280;61766;60.318;25.044;2023-04-15T06:10:41;102573.32;;;7.78;25.59
73518;BME280;61766;60.318;25.044;2023-04-15T06:13:07;102577.19;;;7.09;25.94
73518;BME280;61766;60.318;25.044;2023-04-15T06:15:32;102579.60;;;7.63;25.87
73518;BME280;61766;60.318;25.044;2023-04-15T06:17:58;102578.66;;;8.07;25.59
73518;BME280;61766;60.318;25.044;2023-04-15T06:20:23;102579.89;;;7.77;26.31
73518;BME280;61766;60.318;25.044;2023-04-15T06:22:48;102576.47;;;8.28;25.62
73518;BME280;61766;60.318;25.044;2023-04-15T06:25:13;102571.75;;;8.29;25.37
73518;BME280;61766;60.318;25.044;2023-04-15T06:27:39;102575.95;;;8.60;25.11
73518;BME280;61766;60.318;25.044;2023-04-15T06:30:04;102577.43;;;7.76;25.08
73518;BME280;61766;60.318;25.044;2023-04-15T06:32:28;102578.70;;;7.28;26.09
73518;BME280;61766;60.318;25.044;2023-04-15T06:34:54;102575.46;;;8.10;25.29
73518;BME280;61766;60.318;25.044;2023-04-15T06:37:19;102574.03;;;8.80;24.84
73518;BME280;61766;60.318;25.044;2023-04-15T06:39:44;102575.31;;;9.43;24.53
73518;BME280;61766;60.318;25.044;2023-04-15T06:42:10;102579.69;;;9.01;23.85
73518;BME280;61766;60.318;25.044;2023-04-15T06:44:34;102577.31;;;8.35;24.30
73518;BME280;61766;60.318;25.044;2023-04-15T06:46:59;102579.12;;;9.27;24.01
73518;BME280;61766;60.318;25.044;2023-04-15T06:49:25;102578.16;;;8.99;24.71
73518;BME280;61766;60.318;25.044;2023-04-15T06:51:50;102578.57;;;9.01;23.92
73518;BME280;61766;60.318;25.044;2023-04-15T06:54:16;102578.71;;;9.97;23.98
73518;BME280;61766;60.318;25.044;2023-04-15T06:56:42;102577.62;;;10.06;23.49
73518;BME280;61766;60.318;25.044;2023-04-15T06:59:06;102579.91;;;10.24;22.99
73518;BME280;61766;60.318;25.044;2023-04-15T07:01:31;102581.02;;;10.67;22.04
73518;BME280;61766;60.318;25.044;2023-04-15T07:03:56;102578.47;;;11.11;22.12
73518;BME280;61766;60.318;25.044;2023-04-15T07:06:22;102580.78;;;10.93;21.80
73518;BME280;61766;60.318;25.044;2023-04-15T07:08:47;102579.79;;;10.70;21.52
73518;BME280;61766;60.318;25.044;2023-04-15T07:11:12;102580.90;;;10.36;21.91
73518;BME280;61766;60.318;25.044;2023-04-15T07:13:37;102582.25;;;10.53;21.39
73518;BME280;61766;60.318;25.044;2023-04-15T07:16:02;102574.26;;;9.35;22.20
73518;BME280;61766;60.318;25.044;2023-04-15T07:18:27;102577.06;;;9.68;21.93
73518;BME280;61766;60.318;25.044;2023-04-15T07:20:52;102574.49;;;9.61;21.90
73518;BME280;61766;60.318;25.044;2023-04-15T07:23:17;102579.06;;;10.62;21.80
73518;BME280;61766;60.318;25.044;2023-04-15T07:25:42;102579.58;;;11.17;21.38
73518;BME280;61766;60.318;25.044;2023-04-15T07:28:07;102579.22;;;9.63;21.05
73518;BME280;61766;60.318;25.044;2023-04-15T07:30:32;102576.86;;;9.63;21.80
73518;BME280;61766;60.318;25.044;2023-04-15T07:32:58;102583.18;;;9.50;21.83
73518;BME280;61766;60.318;25.044;2023-04-15T07:35:22;102577.84;;;10.38;21.32
73518;BME280;61766;60.318;25.044;2023-04-15T07:37:48;102584.09;;;10.93;21.12
73518;BME280;61766;60.318;25.044;2023-04-15T07:40:13;102585.02;;;11.11;20.40
73518;BME280;61766;60.318;25.044;2023-04-15T07:42:38;102583.05;;;10.72;20.83
73518;BME280;61766;60.318;25.044;2023-04-15T07:45:03;102587.48;;;8.91;22.31
73518;BME280;61766;60.318;25.044;2023-04-15T07:47:28;102589.32;;;10.65;21.49
73518;BME280;61766;60.318;25.044;2023-04-15T07:49:53;102585.30;;;10.66;21.00
73518;BME280;61766;60.318;25.044;2023-04-15T07:52:18;102583.84;;;11.20;20.40
73518;BME280;61766;60.318;25.044;2023-04-15T07:54:44;102586.04;;;11.65;20.46
73518;BME280;61766;60.318;25.044;2023-04-15T07:57:08;102584.89;;;10.85;19.70
73518;BME280;61766;60.318;25.044;2023-04-15T07:59:34;102584.77;;;11.57;19.96
73518;BME280;61766;60.318;25.044;2023-04-15T08:01:59;102587.69;;;9.91;20.80
73518;BME280;61766;60.318;25.044;2023-04-15T08:04:24;102584.91;;;9.39;21.23
73518;BME280;61766;60.318;25.044;2023-04-15T08:06:50;102589.17;;;10.95;20.58
73518;BME280;61766;60.318;25.044;2023-04-15T08:09:14;102585.32;;;11.19;20.48
73518;BME280;61766;60.318;25.044;2023-04-15T08:11:39;102585.71;;;11.21;19.98
73518;BME280;61766;60.318;25.044;2023-04-15T08:14:05;102584.82;;;10.73;20.09
73518;BME280;61766;60.318;25.044;2023-04-15T08:16:30;102581.70;;;9.82;21.18
73518;BME280;61766;60.318;25.044;2023-04-15T08:18:56;102584.30;;;10.75;19.96
73518;BME280;61766;60.318;25.044;2023-04-15T08:21:20;102576.42;;;12.02;19.81
73518;BME280;61766;60.318;25.044;2023-04-15T08:23:47;102581.16;;;11.95;19.67
73518;BME280;61766;60.318;25.044;2023-04-15T08:26:11;102582.78;;;12.32;19.74
73518;BME280;61766;60.318;25.044;2023-04-15T08:28:37;102585.05;;;11.80;19.42
73518;BME280;61766;60.318;25.044;2023-04-15T08:31:00;102586.56;;;11.22;19.51
73518;BME280;61766;60.318;25.044;2023-04-15T08:33:25;102582.81;;;12.21;19.71
73518;BME280;61766;60.318;25.044;2023-04-15T08:35:50;102588.72;;;11.51;19.63
73518;BME280;61766;60.318;25.044;2023-04-15T08:38:15;102586.78;;;11.55;19.67
73518;BME280;61766;60.318;25.044;2023-04-15T08:40:42;102589.82;;;11.76;20.03
73518;BME280;61766;60.318;25.044;2023-04-15T08:43:07;102583.47;;;11.93;20.31
73518;BME280;61766;60.318;25.044;2023-04-15T08:45:31;102580.82;;;12.29;19.36
73518;BME280;61766;60.318;25.044;2023-04-15T08:47:57;102588.06;;;12.88;19.29
73518;BME280;61766;60.318;25.044;2023-04-15T08:50:21;102579.71;;;12.08;19.22
73518;BME280;61766;60.318;25.044;2023-04-15T08:52:46;102581.05;;;12.90;18.74
73518;BME280;61766;60.318;25.044;2023-04-15T08:55:11;102578.07;;;12.90;18.87
73518;BME280;61766;60.318;25.044;2023-04-15T08:57:36;102585.67;;;12.68;19.10
73518;BME280;61766;60.318;25.044;2023-04-15T09:00:02;102581.99;;;13.26;19.12
73518;BME280;61766;60.318;25.044;2023-04-15T09:02:26;102584.86;;;13.22;18.90
73518;BME280;61766;60.318;25.044;2023-04-15T09:04:52;102583.81;;;13.65;18.04
73518;BME280;61766;60.318;25.044;2023-04-15T09:07:16;102580.32;;;14.29;18.53
73518;BME280;61766;60.318;25.044;2023-04-15T09:09:41;102589.12;;;14.32;18.30
73518;BME280;61766;60.318;25.044;2023-04-15T09:12:06;102583.79;;;13.80;17.50
73518;BME280;61766;60.318;25.044;2023-04-15T09:14:32;102579.58;;;14.70;17.66
73518;BME280;61766;60.318;25.044;2023-04-15T09:16:59;102579.60;;;14.74;17.32
73518;BME280;61766;60.318;25.044;2023-04-15T09:19:24;102583.98;;;15.43;17.32
73518;BME280;61766;60.318;25.044;2023-04-15T09:21:51;102581.71;;;15.12;16.54
73518;BME280;61766;60.318;25.044;2023-04-15T09:24:16;102581.76;;;15.04;17.06
73518;BME280;61766;60.318;25.044;2023-04-15T09:26:42;102580.47;;;15.59;16.57
73518;BME280;61766;60.318;25.044;2023-04-15T09:29:09;102582.03;;;15.52;16.69
73518;BME280;61766;60.318;25.044;2023-04-15T09:31:33;102580.56;;;14.93;16.84
73518;BME280;61766;60.318;25.044;2023-04-15T09:33:59;102581.08;;;14.57;16.38
73518;BME280;61766;60.318;25.044;2023-04-15T09:36:25;102582.35;;;15.14;17.16
73518;BME280;61766;60.318;25.044;2023-04-15T09:38:54;102585.39;;;15.24;16.42
73518;BME280;61766;60.318;25.044;2023-04-15T09:41:17;102578.37;;;13.80;16.09
73518;BME280;61766;60.318;25.044;2023-04-15T09:43:42;102578.38;;;14.96;16.23
73518;BME280;61766;60.318;25.044;2023-04-15T09:46:08;102581.64;;;15.24;16.94
73518;BME280;61766;60.318;25.044;2023-04-15T09:48:34;102579.42;;;14.71;16.21
73518;BME280;61766;60.318;25.044;2023-04-15T09:51:00;102578.97;;;14.61;16.12
73518;BME280;61766;60.318;25.044;2023-04-15T09:53:26;102581.42;;;14.83;16.14
73518;BME280;61766;60.318;25.044;2023-04-15T09:55:54;102580.36;;;14.52;16.57
73518;BME280;61766;60.318;25.044;2023-04-15T09:58:18;102586.19;;;14.32;16.39
73518;BME280;61766;60.318;25.044;2023-04-15T10:00:43;102584.99;;;14.41;16.44
73518;BME280;61766;60.318;25.044;2023-04-15T10:03:09;102585.45;;;14.34;15.71
73518;BME280;61766;60.318;25.044;2023-04-15T10:05:36;102584.70;;;14.43;15.91
73518;BME280;61766;60.318;25.044;2023-04-15T10:08:00;102581.51;;;14.84;16.49
73518;BME280;61766;60.318;25.044;2023-04-15T10:10:26;102582.10;;;14.99;16.01
73518;BME280;61766;60.318;25.044;2023-04-15T10:12:53;102586.31;;;14.43;16.34
73518;BME280;61766;60.318;25.044;2023-04-15T10:15:18;102587.27;;;14.49;16.32
73518;BME280;61766;60.318;25.044;2023-04-15T10:17:44;102586.90;;;14.29;17.20
73518;BME280;61766;60.318;25.044;2023-04-15T10:20:11;102588.85;;;14.55;16.13
73518;BME280;61766;60.318;25.044;2023-04-15T10:22:37;102591.63;;;14.82;16.50
73518;BME280;61766;60.318;25.044;2023-04-15T10:25:02;102593.24;;;13.01;16.74
73518;BME280;61766;60.318;25.044;2023-04-15T10:27:27;102600.07;;;12.94;17.44
73518;BME280;61766;60.318;25.044;2023-04-15T10:29:53;102590.90;;;13.35;17.45
73518;BME280;61766;60.318;25.044;2023-04-15T10:32:20;102590.61;;;13.69;16.40
73518;BME280;61766;60.318;25.044;2023-04-15T10:34:45;102590.04;;;14.48;17.35
73518;BME280;61766;60.318;25.044;2023-04-15T10:37:10;102593.59;;;14.48;16.64
73518;BME280;61766;60.318;25.044;2023-04-15T10:39:39;102596.88;;;14.55;17.36
73518;BME280;61766;60.318;25.044;2023-04-15T10:42:06;102593.95;;;14.62;16.48
73518;BME280;61766;60.318;25.044;2023-04-15T10:44:28;102589.18;;;15.06;16.32
73518;BME280;61766;60.318;25.044;2023-04-15T10:46:57;102589.98;;;14.72;16.11
73518;BME280;61766;60.318;25.044;2023-04-15T10:49:24;102597.04;;;14.26;16.25
73518;BME280;61766;60.318;25.044;2023-04-15T10:51:51;102596.75;;;14.65;16.49
73518;BME280;61766;60.318;25.044;2023-04-15T10:54:14;102598.47;;;15.24;16.39
73518;BME280;61766;60.318;25.044;2023-04-15T10:56:37;102595.61;;;14.75;15.78
73518;BME280;61766;60.318;25.044;2023-04-15T10:59:04;102598.00;;;15.15;15.95
73518;BME280;61766;60.318;25.044;2023-04-15T11:03:54;102596.48;;;13.98;15.58
73518;BME280;61766;60.318;25.044;2023-04-15T11:06:30;102602.70;;;13.12;16.03
73518;BME280;61766;60.318;25.044;2023-04-15T11:08:56;102592.53;;;12.95;15.99
73518;BME280;61766;60.318;25.044;2023-04-15T11:11:12;102598.65;;;13.44;15.91
73518;BME280;61766;60.318;25.044;2023-04-15T11:13:46;102589.86;;;14.20;15.61
73518;BME280;61766;60.318;25.044;2023-04-15T11:16:03;102590.96;;;14.20;15.49
73518;BME280;61766;60.318;25.044;2023-04-15T11:18:31;102587.60;;;14.93;14.76
73518;BME280;61766;60.318;25.044;2023-04-15T11:20:57;102587.45;;;14.69;15.44
73518;BME280;61766;60.318;25.044;2023-04-15T11:23:27;102586.46;;;15.08;15.66
73518;BME280;61766;60.318;25.044;2023-04-15T11:25:46;102594.91;;;13.25;15.39
73518;BME280;61766;60.318;25.044;2023-04-15T11:28:12;102587.22;;;14.32;15.63
73518;BME280;61766;60.318;25.044;2023-04-15T11:30:39;102587.61;;;12.95;15.88
73518;BME280;61766;60.318;25.044;2023-04-15T11:33:05;102591.46;;;12.32;16.00
73518;BME280;61766;60.318;25.044;2023-04-15T11:35:30;102588.92;;;12.76;15.92
73518;BME280;61766;60.318;25.044;2023-04-15T11:37:56;102584.89;;;12.89;16.77
73518;BME280;61766;60.318;25.044;2023-04-15T11:40:22;102583.08;;;13.81;16.74
73518;BME280;61766;60.318;25.044;2023-04-15T11:45:14;102577.78;;;12.35;15.96
73518;BME280;61766;60.318;25.044;2023-04-15T11:47:40;102577.07;;;12.02;16.79
73518;BME280;61766;60.318;25.044;2023-04-15T11:50:12;102581.96;;;13.41;16.37
73518;BME280;61766;60.318;25.044;2023-04-15T11:52:29;102579.79;;;12.37;16.28
73518;BME280;61766;60.318;25.044;2023-04-15T11:55:01;102583.83;;;13.13;15.73
73518;BME280;61766;60.318;25.044;2023-04-15T11:57:20;102575.31;;;13.98;16.17
73518;BME280;61766;60.318;25.044;2023-04-15T11:59:46;102576.06;;;13.99;15.42
73518;BME280;61766;60.318;25.044;2023-04-15T12:02:12;102575.46;;;14.48;15.77
73518;BME280;61766;60.318;25.044;2023-04-15T12:04:37;102583.85;;;13.28;14.69
73518;BME280;61766;60.318;25.044;2023-04-15T12:07:03;102589.30;;;13.09;15.43
73518;BME280;61766;60.318;25.044;2023-04-15T12:09:29;102584.01;;;14.00;15.59
73518;BME280;61766;60.318;25.044;2023-04-15T12:11:56;102584.56;;;13.11;15.40
73518;BME280;61766;60.318;25.044;2023-04-15T12:14:25;102578.21;;;13.98;15.65
73518;BME280;61766;60.318;25.044;2023-04-15T12:16:48;102577.04;;;14.77;15.27
73518;BME280;61766;60.318;25.044;2023-04-15T12:19:14;102577.99;;;14.06;15.13
73518;BME280;61766;60.318;25.044;2023-04-15T12:21:40;102583.32;;;14.17;15.19
73518;BME280;61766;60.318;25.044;2023-04-15T12:24:06;102582.61;;;13.31;15.11
73518;BME280;61766;60.318;25.044;2023-04-15T12:26:32;102581.02;;;14.08;15.46
73518;BME280;61766;60.318;25.044;2023-04-15T12:29:00;102582.08;;;13.26;15.81
73518;BME280;61766;60.318;25.044;2023-04-15T12:31:22;102582.94;;;13.06;16.34
73518;BME280;61766;60.318;25.044;2023-04-15T12:33:47;102585.13;;;13.50;16.11
73518;BME280;61766;60.318;25.044;2023-04-15T12:36:13;102580.28;;;13.84;16.37
73518;BME280;61766;60.318;25.044;2023-04-15T12:38:38;102580.84;;;13.24;16.06